createdAt,value
2022-12-11T00:02:03.772Z,2.11
2022-12-11T00:05:28.984Z,2.12
2022-12-11T00:08:54.273Z,2.14
2022-12-11T00:12:19.566Z,2.15
2022-12-11T00:15:44.831Z,2.14
2022-12-11T00:19:10.086Z,2.15
2022-12-11T00:22:35.319Z,2.14
2022-12-11T00:26:00.594Z,2.14
2022-12-11T00:29:25.892Z,2.14
2022-12-11T00:32:51.117Z,2.19
2022-12-11T00:36:17.086Z,2.25
2022-12-11T00:39:42.359Z,2.26
2022-12-11T00:43:07.610Z,2.23
2022-12-11T00:46:32.919Z,2.27
2022-12-11T00:49:58.149Z,2.32
2022-12-11T00:53:23.393Z,2.34
2022-12-11T00:56:48.688Z,2.35
2022-12-11T01:00:13.981Z,2.4
2022-12-11T01:03:39.257Z,2.43
2022-12-11T01:07:04.519Z,2.43
2022-12-11T01:10:29.833Z,2.48
2022-12-11T01:13:55.086Z,2.51
2022-12-11T01:17:20.357Z,2.56
2022-12-11T01:20:45.655Z,2.63
2022-12-11T01:24:10.879Z,2.59
2022-12-11T01:27:36.123Z,2.49
2022-12-11T01:31:01.437Z,2.42
2022-12-11T01:34:26.645Z,2.38
2022-12-11T01:37:51.968Z,2.35
2022-12-11T01:41:17.216Z,2.33
2022-12-11T01:44:42.476Z,2.35
2022-12-11T01:48:07.757Z,2.4
2022-12-11T01:51:33.005Z,2.38
2022-12-11T01:54:58.317Z,2.33
2022-12-11T01:58:23.557Z,2.27
2022-12-11T02:01:48.843Z,2.23
2022-12-11T02:05:14.087Z,2.24
2022-12-11T02:08:39.329Z,2.22
2022-12-11T02:12:04.610Z,2.22
2022-12-11T02:15:29.843Z,2.22
2022-12-11T02:18:55.085Z,2.17
2022-12-11T02:22:20.421Z,2.1
2022-12-11T02:25:45.619Z,2.07
2022-12-11T02:29:10.891Z,2.03
2022-12-11T02:32:36.132Z,2.02
2022-12-11T02:36:01.383Z,1.97
2022-12-11T02:39:26.624Z,1.97
2022-12-11T02:42:51.895Z,1.99
2022-12-11T02:46:17.241Z,2
2022-12-11T02:49:42.449Z,2.09
2022-12-11T02:53:07.710Z,2.06
2022-12-11T02:56:32.985Z,2.02
2022-12-11T02:59:58.260Z,1.94
2022-12-11T03:03:23.560Z,1.88
2022-12-11T03:06:48.833Z,1.8
2022-12-11T03:10:14.117Z,1.76
2022-12-11T03:13:39.373Z,1.71
2022-12-11T03:17:04.667Z,1.67
2022-12-11T03:20:29.957Z,1.64
2022-12-11T03:23:55.212Z,1.64
2022-12-11T03:27:20.495Z,1.63
2022-12-11T03:30:45.807Z,1.59
2022-12-11T03:34:11.064Z,1.58
2022-12-11T03:37:36.374Z,1.57
2022-12-11T03:41:01.622Z,1.5
2022-12-11T03:44:26.866Z,1.5
2022-12-11T03:47:52.155Z,1.53
2022-12-11T03:51:17.392Z,1.54
2022-12-11T03:54:42.710Z,1.56
2022-12-11T03:58:07.944Z,1.56
2022-12-11T04:01:33.264Z,1.52
2022-12-11T04:04:58.528Z,1.45
2022-12-11T04:08:23.947Z,1.43
2022-12-11T04:11:49.102Z,1.47
2022-12-11T04:15:14.317Z,1.53
2022-12-11T04:18:39.564Z,1.58
2022-12-11T04:22:04.845Z,1.61
2022-12-11T04:25:30.093Z,1.64
2022-12-11T04:28:55.395Z,1.69
2022-12-11T04:32:20.663Z,1.75
2022-12-11T04:35:45.906Z,1.76
2022-12-11T04:39:11.166Z,1.75
2022-12-11T04:42:36.394Z,1.76
2022-12-11T04:46:02.174Z,1.78
2022-12-11T04:49:27.366Z,1.79
2022-12-11T04:52:52.648Z,1.78
2022-12-11T04:56:17.904Z,1.82
2022-12-11T04:59:43.147Z,1.85
2022-12-11T05:03:08.447Z,1.89
2022-12-11T05:06:33.614Z,1.91
2022-12-11T05:09:58.880Z,1.88
2022-12-11T05:13:24.131Z,1.79
2022-12-11T05:16:49.412Z,1.72
2022-12-11T05:20:14.729Z,1.69
2022-12-11T05:23:39.958Z,1.66
2022-12-11T05:27:05.202Z,1.71
2022-12-11T05:30:30.472Z,1.7
2022-12-11T05:33:55.717Z,1.64
2022-12-11T05:37:21.029Z,1.57
2022-12-11T05:40:47.272Z,1.56
2022-12-11T05:44:12.510Z,1.54
2022-12-11T05:47:37.753Z,1.47
2022-12-11T05:51:02.997Z,1.47
2022-12-11T05:54:28.279Z,1.42
2022-12-11T05:57:53.506Z,1.44
2022-12-11T06:01:18.791Z,1.46
2022-12-11T06:04:44.034Z,1.47
2022-12-11T06:08:09.345Z,1.39
2022-12-11T06:11:34.591Z,1.32
2022-12-11T06:14:59.771Z,1.26
2022-12-11T06:18:24.949Z,1.29
2022-12-11T06:21:50.178Z,1.32
2022-12-11T06:25:15.374Z,1.37
2022-12-11T06:28:40.641Z,1.43
2022-12-11T06:32:05.813Z,1.49
2022-12-11T06:35:30.960Z,1.49
2022-12-11T06:38:56.155Z,1.47
2022-12-11T06:42:21.361Z,1.46
2022-12-11T06:45:46.575Z,1.45
2022-12-11T06:49:11.718Z,1.41
2022-12-11T06:52:36.899Z,1.36
2022-12-11T06:56:02.094Z,1.35
2022-12-11T06:59:27.276Z,1.37
2022-12-11T07:02:52.529Z,1.4
2022-12-11T07:06:17.676Z,1.45
2022-12-11T07:09:42.881Z,1.48
2022-12-11T07:13:08.078Z,1.46
2022-12-11T07:16:33.462Z,1.46
2022-12-11T07:19:58.672Z,1.46
2022-12-11T07:23:23.919Z,1.46
2022-12-11T07:26:49.150Z,1.45
2022-12-11T07:30:14.386Z,1.4
2022-12-11T07:33:39.677Z,1.33
2022-12-11T07:37:04.955Z,1.32
2022-12-11T07:40:30.172Z,1.26
2022-12-11T07:43:55.498Z,1.23
2022-12-11T07:47:20.747Z,1.19
2022-12-11T07:50:46.017Z,1.17
2022-12-11T07:54:11.278Z,1.11
2022-12-11T07:57:36.534Z,1.1
2022-12-11T08:01:01.928Z,1.08
2022-12-11T08:04:27.085Z,1.08
2022-12-11T08:07:52.381Z,1.1
2022-12-11T08:11:29.304Z,1.15
2022-12-11T08:15:39.535Z,1.18
2022-12-11T08:19:04.789Z,1.17
2022-12-11T08:22:58.986Z,1.2
2022-12-11T08:26:20.882Z,1.25
2022-12-11T08:29:46.142Z,1.27
2022-12-11T08:33:11.360Z,1.33
2022-12-11T08:36:36.637Z,1.4
2022-12-11T08:40:01.904Z,1.45
2022-12-11T08:43:27.150Z,1.45
2022-12-11T08:46:52.440Z,1.44
2022-12-11T08:50:29.869Z,1.43
2022-12-11T08:53:55.115Z,1.46
2022-12-11T08:57:20.386Z,1.49
2022-12-11T09:01:12.102Z,1.52
2022-12-11T09:04:42.235Z,1.51
2022-12-11T09:08:07.482Z,1.5
2022-12-11T09:11:32.733Z,1.47
2022-12-11T09:14:58.005Z,1.5
2022-12-11T09:18:23.226Z,1.53
2022-12-11T09:21:48.522Z,1.53
2022-12-11T09:25:13.972Z,1.56
2022-12-11T09:28:44.370Z,1.63
2022-12-11T09:32:04.342Z,1.76
2022-12-11T09:35:29.656Z,1.84
2022-12-11T09:38:54.950Z,1.98
2022-12-11T09:42:20.192Z,2.14
2022-12-11T09:45:45.448Z,2.31
2022-12-11T09:49:10.698Z,2.48
2022-12-11T09:52:35.951Z,2.53
2022-12-11T09:56:01.268Z,2.52
2022-12-11T09:59:26.514Z,2.49
2022-12-11T10:02:51.853Z,2.48
2022-12-11T10:06:17.073Z,2.47
2022-12-11T10:09:42.362Z,2.54
2022-12-11T10:13:07.683Z,2.52
2022-12-11T10:16:32.924Z,2.42
2022-12-11T10:19:58.178Z,2.37
2022-12-11T10:23:23.413Z,2.36
2022-12-11T10:26:48.678Z,2.33
2022-12-11T10:30:13.941Z,2.33
2022-12-11T10:33:39.173Z,2.33
2022-12-11T10:37:04.409Z,2.34
2022-12-11T10:40:29.673Z,2.33
2022-12-11T10:43:54.955Z,2.37
2022-12-11T10:47:20.243Z,2.45
2022-12-11T10:50:45.497Z,2.58
2022-12-11T10:54:10.722Z,2.69
2022-12-11T10:57:35.995Z,2.8
2022-12-11T11:01:01.256Z,2.84
2022-12-11T11:04:26.559Z,2.84
2022-12-11T11:07:52.047Z,2.83
2022-12-11T11:11:17.686Z,2.85
2022-12-11T11:14:42.939Z,2.8
2022-12-11T11:18:08.203Z,2.76
2022-12-11T11:21:33.487Z,2.77
2022-12-11T11:24:58.716Z,2.86
2022-12-11T11:28:24.007Z,2.97
2022-12-11T11:31:49.298Z,2.94
2022-12-11T11:35:14.731Z,2.96
2022-12-11T11:38:39.865Z,2.89
2022-12-11T11:42:05.114Z,2.88
2022-12-11T11:45:30.392Z,2.84
2022-12-11T11:48:55.703Z,2.81
2022-12-11T11:52:20.980Z,2.83
2022-12-11T11:55:46.300Z,2.75
2022-12-11T11:59:11.544Z,2.79
2022-12-11T12:02:36.864Z,2.77
2022-12-11T12:06:02.149Z,2.72
2022-12-11T12:09:27.600Z,2.7
2022-12-11T12:12:52.867Z,2.64
2022-12-11T12:16:50.853Z,2.45
2022-12-11T12:19:43.381Z,2.24
2022-12-11T12:23:08.655Z,2.08
2022-12-11T12:26:33.926Z,2.09
2022-12-11T12:29:59.277Z,2.17
2022-12-11T12:33:24.514Z,2.25
2022-12-11T12:36:49.796Z,2.38
2022-12-11T12:40:17.056Z,2.37
2022-12-11T12:43:42.401Z,2.26
2022-12-11T12:47:11.934Z,2.17
2022-12-11T12:50:37.170Z,2.07
2022-12-11T12:54:02.782Z,2.13
2022-12-11T12:57:27.733Z,2.21
2022-12-11T13:00:53.044Z,2.23
2022-12-11T13:04:39.528Z,2.24
2022-12-11T13:07:47.670Z,2.25
2022-12-11T13:11:10.620Z,2.27
2022-12-11T13:14:35.983Z,2.2
2022-12-11T13:18:04.061Z,2.15
2022-12-11T13:21:31.744Z,2.09
2022-12-11T13:24:57.005Z,2.09
2022-12-11T13:28:22.234Z,2.08
2022-12-11T13:31:47.523Z,2.07
2022-12-11T13:35:13.122Z,2
2022-12-11T13:38:38.125Z,1.96
2022-12-11T13:42:03.413Z,1.98
2022-12-11T13:45:28.738Z,1.93
2022-12-11T13:48:53.924Z,1.77
2022-12-11T13:52:19.191Z,1.62
2022-12-11T13:55:44.516Z,1.6
2022-12-11T13:59:09.758Z,1.58
2022-12-11T14:02:35.060Z,1.56
2022-12-11T14:06:00.292Z,1.54
2022-12-11T14:09:25.535Z,1.48
2022-12-11T14:12:50.817Z,1.4
2022-12-11T14:16:16.045Z,1.34
2022-12-11T14:19:41.338Z,1.34
2022-12-11T14:23:06.692Z,1.33
2022-12-11T14:26:32.186Z,1.31
2022-12-11T14:29:57.743Z,1.2
2022-12-11T15:03:16.526Z,-1.65
2022-12-11T15:06:41.793Z,-0.62
2022-12-11T15:10:07.062Z,-0.35
2022-12-11T15:13:32.413Z,-0.14
2022-12-11T15:16:57.764Z,0.03
2022-12-11T15:20:23.729Z,0.13
2022-12-11T15:23:48.967Z,0.19
2022-12-11T15:27:14.237Z,0.28
2022-12-11T15:30:39.805Z,0.33
2022-12-11T15:34:05.022Z,0.4
2022-12-11T15:37:30.338Z,0.51
2022-12-11T15:40:55.573Z,0.61
2022-12-11T15:44:20.836Z,0.71
2022-12-11T15:47:46.078Z,0.82
2022-12-11T15:51:11.367Z,0.9
2022-12-11T15:54:36.673Z,0.97
2022-12-11T15:58:01.893Z,1.06
2022-12-11T16:01:27.192Z,1.09
2022-12-11T16:04:52.426Z,1.15
2022-12-11T16:08:17.735Z,1.18
2022-12-11T16:11:43.028Z,1.23
2022-12-11T16:15:08.257Z,1.26
2022-12-11T16:18:33.516Z,1.24
2022-12-11T16:21:58.786Z,1.12
2022-12-11T16:25:24.033Z,1.03
2022-12-11T16:28:49.317Z,1.02
2022-12-11T16:32:14.627Z,0.9
2022-12-11T16:35:39.913Z,0.84
2022-12-11T16:39:05.191Z,0.79
2022-12-11T16:42:30.458Z,0.77
2022-12-11T16:45:55.806Z,0.82
2022-12-11T16:49:20.984Z,0.82
2022-12-11T16:52:46.229Z,0.83
2022-12-11T16:56:11.496Z,0.89
2022-12-11T16:59:37.602Z,0.93
2022-12-11T17:03:02.035Z,0.94
2022-12-11T17:06:27.598Z,0.93
2022-12-11T17:09:52.872Z,0.91
2022-12-11T17:13:18.112Z,0.84
2022-12-11T17:16:43.395Z,0.84
2022-12-11T17:20:08.676Z,0.83
2022-12-11T17:23:34.862Z,0.83
2022-12-11T17:27:00.122Z,0.86
2022-12-11T17:30:25.436Z,0.86
2022-12-11T17:33:50.772Z,0.88
2022-12-11T17:37:16.092Z,0.89
2022-12-11T17:40:41.408Z,0.91
2022-12-11T17:44:06.648Z,0.92
2022-12-11T17:47:32.025Z,0.93
2022-12-11T17:50:57.332Z,0.85
2022-12-11T17:54:22.601Z,0.71
2022-12-11T17:57:47.913Z,0.6
2022-12-11T18:01:13.176Z,0.53
2022-12-11T18:04:38.433Z,0.54
2022-12-11T18:08:03.759Z,0.55
2022-12-11T18:11:29.006Z,0.48
2022-12-11T18:14:54.299Z,0.4
2022-12-11T18:18:19.696Z,0.38
2022-12-11T18:21:44.993Z,0.37
2022-12-11T18:25:11.702Z,0.44
2022-12-11T18:28:35.544Z,0.52
2022-12-11T18:32:00.882Z,0.58
2022-12-11T18:35:26.120Z,0.6
2022-12-11T18:38:51.390Z,0.65
2022-12-11T18:42:33.287Z,0.64
2022-12-11T18:45:41.977Z,0.6
2022-12-11T18:49:07.250Z,0.52
2022-12-11T18:52:32.462Z,0.46
2022-12-11T18:56:00.471Z,0.46
2022-12-11T18:59:22.973Z,0.46
2022-12-11T19:02:48.200Z,0.5
2022-12-11T19:06:19.428Z,0.59
2022-12-11T19:09:39.880Z,0.63
2022-12-11T19:13:03.949Z,0.6
2022-12-11T19:16:29.274Z,0.53
2022-12-11T19:19:54.491Z,0.49
2022-12-11T19:23:19.749Z,0.39
2022-12-11T19:26:45.005Z,0.37
2022-12-11T19:30:10.260Z,0.35
2022-12-11T19:33:35.499Z,0.34
2022-12-11T19:37:00.782Z,0.29
2022-12-11T19:40:26.045Z,0.28
2022-12-11T19:43:51.344Z,0.3
2022-12-11T19:47:16.669Z,0.3
2022-12-11T19:50:42.161Z,0.22
2022-12-11T19:54:07.393Z,0.1
2022-12-11T19:57:32.699Z,-0.03
2022-12-11T20:00:58.001Z,-0.08
2022-12-11T20:04:23.263Z,-0.08
2022-12-11T20:07:48.582Z,-0.07
2022-12-11T20:11:17.779Z,-0.05
2022-12-11T20:14:39.135Z,-0.15
2022-12-11T20:18:04.437Z,-0.41
2022-12-11T20:21:29.729Z,-0.7
2022-12-11T20:24:55.009Z,-0.95
2022-12-11T20:28:20.287Z,-1.2
2022-12-11T20:31:45.618Z,-1.39
2022-12-11T20:35:11.199Z,-1.61
2022-12-11T20:38:36.110Z,-1.61
2022-12-11T20:42:01.419Z,-1.5
2022-12-11T20:45:26.681Z,-1.43
2022-12-11T20:48:51.912Z,-1.36
2022-12-11T20:52:17.208Z,-1.32
2022-12-11T20:55:42.469Z,-1.29
2022-12-11T20:59:07.761Z,-1.25
2022-12-11T21:02:33.071Z,-1.21
2022-12-11T21:05:58.348Z,-1.16
2022-12-11T21:09:23.751Z,-1.14
2022-12-11T21:12:48.990Z,-1.12
2022-12-11T21:16:14.323Z,-1.08
2022-12-11T21:19:39.539Z,-1.05
2022-12-11T21:23:04.838Z,-1.04
2022-12-11T21:26:30.122Z,-1.09
2022-12-11T21:29:55.361Z,-1.11
2022-12-11T21:33:20.644Z,-1.15
2022-12-11T21:36:45.909Z,-1.2
2022-12-11T21:40:11.161Z,-1.23
2022-12-11T21:43:38.094Z,-1.26
2022-12-11T21:47:01.748Z,-1.26
2022-12-11T21:50:27.046Z,-1.35
2022-12-11T21:53:52.310Z,-1.46
2022-12-11T21:57:21.319Z,-1.48
2022-12-11T22:00:42.934Z,-1.5
2022-12-11T22:04:08.159Z,-1.5
2022-12-11T22:07:33.425Z,-1.5
2022-12-11T22:10:58.684Z,-1.5
2022-12-11T22:14:23.964Z,-1.51
2022-12-11T22:17:49.256Z,-1.53
2022-12-11T22:21:14.490Z,-1.51
2022-12-11T22:24:39.772Z,-1.52
2022-12-11T22:28:05.022Z,-1.54
2022-12-11T22:31:30.277Z,-1.58
2022-12-11T22:34:55.591Z,-1.64
2022-12-11T22:38:20.832Z,-1.65
2022-12-11T22:41:46.089Z,-1.63
2022-12-11T22:45:11.707Z,-1.61
2022-12-11T22:48:36.670Z,-1.59
2022-12-11T22:52:07.532Z,-1.59
2022-12-11T22:55:27.297Z,-1.55
2022-12-11T22:58:52.556Z,-1.52
2022-12-11T23:02:17.842Z,-1.42
2022-12-11T23:05:43.064Z,-1.35
2022-12-11T23:09:08.311Z,-1.29
2022-12-11T23:12:33.567Z,-1.28
2022-12-11T23:16:04.016Z,-1.26
2022-12-11T23:19:25.682Z,-1.28
2022-12-11T23:22:49.362Z,-1.3
2022-12-11T23:26:14.596Z,-1.3
2022-12-11T23:29:39.865Z,-1.28
2022-12-11T23:33:05.125Z,-1.25
2022-12-11T23:36:30.422Z,-1.24
2022-12-11T23:40:01.713Z,-1.25
2022-12-11T23:43:20.992Z,-1.28
2022-12-11T23:46:46.248Z,-1.3
2022-12-11T23:50:11.515Z,-1.3
2022-12-11T23:53:36.748Z,-1.26
2022-12-11T23:57:02.072Z,-1.27
